Track Удовиченко Игорь

Time Latitude Longitude Accuracy (66% radius in meters) Altitude (meters) Speed (km/hour) Bearing (degrees) Battery (%) GPS flag
07:12:21 57.205221 60.115022 0 0 0 0 1 delete
07:12:20 57.205214 60.114980 0 0 0 0 1 delete
07:12:19 57.205205 60.114937 0 0 0 0 1 delete
07:12:18 57.205196 60.114892 0 0 0 0 1 delete
07:12:17 57.205191 60.114851 0 0 0 0 1 delete
07:12:16 57.205187 60.114814 0 0 0 0 1 delete
07:12:15 57.205181 60.114783 0 0 0 0 1 delete
07:12:14 57.205176 60.114752 0 0 0 0 1 delete
07:12:13 57.205170 60.114720 0 0 0 0 1 delete
07:12:12 57.205165 60.114685 0 0 0 0 1 delete
07:12:11 57.205160 60.114644 0 0 0 0 1 delete
07:12:10 57.205154 60.114599 0 0 0 0 1 delete
07:12:09 57.205149 60.114555 0 0 0 0 1 delete
07:12:08 57.205143 60.114513 0 0 0 0 1 delete
07:12:07 57.205140 60.114475 0 0 0 0 1 delete
07:12:06 57.205136 60.114437 0 0 0 0 1 delete
07:12:05 57.205129 60.114405 0 0 0 0 1 delete
07:12:04 57.205118 60.114379 0 0 0 0 1 delete
07:12:03 57.205102 60.114368 0 0 0 0 1 delete
07:12:02 57.205086 60.114372 0 0 0 0 1 delete
07:12:01 57.205067 60.114388 0 0 0 0 1 delete
07:12:00 57.205048 60.114404 0 0 0 0 1 delete
07:11:59 57.205030 60.114416 0 0 0 0 1 delete
07:11:58 57.205016 60.114420 0 0 0 0 1 delete
07:11:57 57.205003 60.114418 0 0 0 0 1 delete
07:11:56 57.204993 60.114410 0 0 0 0 1 delete
07:11:55 57.204983 60.114402 0 0 0 0 1 delete
07:11:54 57.204976 60.114396 0 0 0 0 1 delete
07:11:53 57.204974 60.114392 0 0 0 0 1 delete
07:11:52 57.204970 60.114391 0 0 0 0 1 delete
07:11:51 57.204968 60.114393 0 0 0 0 1 delete
07:11:50 57.204967 60.114396 0 0 0 0 1 delete
07:11:49 57.204975 60.114397 0 0 0 0 1 delete
07:11:48 57.204989 60.114396 0 0 0 0 1 delete
07:11:47 57.205006 60.114399 0 0 0 0 1 delete
07:11:46 57.205023 60.114403 0 0 0 0 1 delete
07:11:45 57.205041 60.114404 0 0 0 0 1 delete
07:11:44 57.205057 60.114400 0 0 0 0 1 delete
07:11:43 57.205074 60.114397 0 0 0 0 1 delete
07:11:42 57.205091 60.114397 0 0 0 0 1 delete
07:11:41 57.205109 60.114408 0 0 0 0 1 delete
07:11:40 57.205128 60.114438 0 0 0 0 1 delete
07:11:39 57.205144 60.114492 0 0 0 0 1 delete
07:11:38 57.205156 60.114563 0 0 0 0 1 delete
07:11:37 57.205165 60.114638 0 0 0 0 1 delete
07:11:36 57.205174 60.114709 0 0 0 0 1 delete
07:11:35 57.205186 60.114776 0 0 0 0 1 delete
07:11:34 57.205198 60.114837 0 0 0 0 1 delete
07:11:33 57.205210 60.114892 0 0 0 0 1 delete
07:11:32 57.205221 60.114946 0 0 0 0 1 delete